sensor_id;sensor_type;location;lat;lon;timestamp;P1;durP1;ratioP1;P2;durP2;ratioP2
422;SDS011;198;48.752;9.180;2023-06-14T00:02:18;9.77;;;3.83;;
422;SDS011;198;48.752;9.180;2023-06-14T00:04:44;7.30;;;3.60;;
422;SDS011;198;48.752;9.180;2023-06-14T00:07:10;9.47;;;3.93;;
422;SDS011;198;48.752;9.180;2023-06-14T00:09:38;7.13;;;3.50;;
422;SDS011;198;48.752;9.180;2023-06-14T00:12:04;6.93;;;3.90;;
422;SDS011;198;48.752;9.180;2023-06-14T00:14:31;6.57;;;3.90;;
422;SDS011;198;48.752;9.180;2023-06-14T00:16:56;8.07;;;3.87;;
422;SDS011;198;48.752;9.180;2023-06-14T00:19:23;7.17;;;3.60;;
422;SDS011;198;48.752;9.180;2023-06-14T00:21:50;12.50;;;4.53;;
422;SDS011;198;48.752;9.180;2023-06-14T00:24:16;6.40;;;3.47;;
422;SDS011;198;48.752;9.180;2023-06-14T00:26:42;4.33;;;3.13;;
422;SDS011;198;48.752;9.180;2023-06-14T00:29:07;6.70;;;4.07;;
422;SDS011;198;48.752;9.180;2023-06-14T00:31:33;7.20;;;3.50;;
422;SDS011;198;48.752;9.180;2023-06-14T00:33:58;14.53;;;4.47;;
422;SDS011;198;48.752;9.180;2023-06-14T00:36:24;9.20;;;4.33;;
422;SDS011;198;48.752;9.180;2023-06-14T00:38:49;9.00;;;3.10;;
422;SDS011;198;48.752;9.180;2023-06-14T00:41:15;5.03;;;3.53;;
422;SDS011;198;48.752;9.180;2023-06-14T00:43:40;4.70;;;3.00;;
422;SDS011;198;48.752;9.180;2023-06-14T00:46:06;7.90;;;3.63;;
422;SDS011;198;48.752;9.180;2023-06-14T00:48:31;7.23;;;3.70;;
422;SDS011;198;48.752;9.180;2023-06-14T00:50:58;6.53;;;3.10;;
422;SDS011;198;48.752;9.180;2023-06-14T00:53:28;6.70;;;4.60;;
422;SDS011;198;48.752;9.180;2023-06-14T00:55:56;5.63;;;3.27;;
422;SDS011;198;48.752;9.180;2023-06-14T00:58:21;3.73;;;2.63;;
422;SDS011;198;48.752;9.180;2023-06-14T01:00:47;4.73;;;3.50;;
422;SDS011;198;48.752;9.180;2023-06-14T01:03:13;14.70;;;3.67;;
422;SDS011;198;48.752;9.180;2023-06-14T01:05:44;6.73;;;3.33;;
422;SDS011;198;48.752;9.180;2023-06-14T01:13:33;4.73;;;2.97;;
422;SDS011;198;48.752;9.180;2023-06-14T01:16:02;6.67;;;3.73;;
422;SDS011;198;48.752;9.180;2023-06-14T01:18:29;6.83;;;3.27;;
422;SDS011;198;48.752;9.180;2023-06-14T01:20:56;4.07;;;2.80;;
422;SDS011;198;48.752;9.180;2023-06-14T01:23:22;5.47;;;3.17;;
422;SDS011;198;48.752;9.180;2023-06-14T01:25:48;6.17;;;3.27;;
422;SDS011;198;48.752;9.180;2023-06-14T01:28:17;6.30;;;3.30;;
422;SDS011;198;48.752;9.180;2023-06-14T01:30:45;5.20;;;3.50;;
422;SDS011;198;48.752;9.180;2023-06-14T01:33:14;4.70;;;3.50;;
422;SDS011;198;48.752;9.180;2023-06-14T01:35:42;6.90;;;3.40;;
422;SDS011;198;48.752;9.180;2023-06-14T01:38:08;4.73;;;3.20;;
422;SDS011;198;48.752;9.180;2023-06-14T01:40:34;5.83;;;3.20;;
422;SDS011;198;48.752;9.180;2023-06-14T01:43:00;5.87;;;3.63;;
422;SDS011;198;48.752;9.180;2023-06-14T01:45:28;5.53;;;3.20;;
422;SDS011;198;48.752;9.180;2023-06-14T01:47:54;5.77;;;3.27;;
422;SDS011;198;48.752;9.180;2023-06-14T01:50:20;6.00;;;3.60;;
422;SDS011;198;48.752;9.180;2023-06-14T01:52:46;5.90;;;3.37;;
422;SDS011;198;48.752;9.180;2023-06-14T01:55:12;6.67;;;3.80;;
422;SDS011;198;48.752;9.180;2023-06-14T01:57:37;4.20;;;3.20;;
422;SDS011;198;48.752;9.180;2023-06-14T02:00:04;7.00;;;4.70;;
422;SDS011;198;48.752;9.180;2023-06-14T02:02:33;5.13;;;3.03;;
422;SDS011;198;48.752;9.180;2023-06-14T02:04:58;5.33;;;3.10;;
422;SDS011;198;48.752;9.180;2023-06-14T02:07:24;5.87;;;3.20;;
422;SDS011;198;48.752;9.180;2023-06-14T02:09:49;5.63;;;3.80;;
422;SDS011;198;48.752;9.180;2023-06-14T02:12:15;8.13;;;3.20;;
422;SDS011;198;48.752;9.180;2023-06-14T02:14:40;6.90;;;4.00;;
422;SDS011;198;48.752;9.180;2023-06-14T02:17:06;6.10;;;3.60;;
422;SDS011;198;48.752;9.180;2023-06-14T02:19:32;5.43;;;3.73;;
422;SDS011;198;48.752;9.180;2023-06-14T02:21:58;10.33;;;3.80;;
422;SDS011;198;48.752;9.180;2023-06-14T02:24:24;6.40;;;3.77;;
422;SDS011;198;48.752;9.180;2023-06-14T02:26:50;10.80;;;4.50;;
422;SDS011;198;48.752;9.180;2023-06-14T02:29:15;5.90;;;3.80;;
422;SDS011;198;48.752;9.180;2023-06-14T02:31:41;10.20;;;4.77;;
422;SDS011;198;48.752;9.180;2023-06-14T02:34:06;9.67;;;4.17;;
422;SDS011;198;48.752;9.180;2023-06-14T02:36:35;8.20;;;3.80;;
422;SDS011;198;48.752;9.180;2023-06-14T02:39:06;8.10;;;3.97;;
422;SDS011;198;48.752;9.180;2023-06-14T02:41:34;10.33;;;4.60;;
422;SDS011;198;48.752;9.180;2023-06-14T02:43:59;8.43;;;3.33;;
422;SDS011;198;48.752;9.180;2023-06-14T02:46:25;7.40;;;3.67;;
422;SDS011;198;48.752;9.180;2023-06-14T02:48:51;5.23;;;3.50;;
422;SDS011;198;48.752;9.180;2023-06-14T02:51:16;6.50;;;3.50;;
422;SDS011;198;48.752;9.180;2023-06-14T02:53:41;6.43;;;3.33;;
422;SDS011;198;48.752;9.180;2023-06-14T02:56:08;6.87;;;3.97;;
422;SDS011;198;48.752;9.180;2023-06-14T02:58:35;9.37;;;3.57;;
422;SDS011;198;48.752;9.180;2023-06-14T03:01:01;5.67;;;3.67;;
422;SDS011;198;48.752;9.180;2023-06-14T03:03:27;7.30;;;4.00;;
422;SDS011;198;48.752;9.180;2023-06-14T03:05:53;7.03;;;4.03;;
422;SDS011;198;48.752;9.180;2023-06-14T03:08:19;11.57;;;3.97;;
422;SDS011;198;48.752;9.180;2023-06-14T03:10:45;14.20;;;4.10;;
422;SDS011;198;48.752;9.180;2023-06-14T03:13:12;9.60;;;4.50;;
422;SDS011;198;48.752;9.180;2023-06-14T03:15:37;4.67;;;3.03;;
422;SDS011;198;48.752;9.180;2023-06-14T03:18:06;4.77;;;3.00;;
422;SDS011;198;48.752;9.180;2023-06-14T03:20:36;8.43;;;4.20;;
422;SDS011;198;48.752;9.180;2023-06-14T03:23:02;7.33;;;4.07;;
422;SDS011;198;48.752;9.180;2023-06-14T03:25:28;5.43;;;3.00;;
422;SDS011;198;48.752;9.180;2023-06-14T03:27:54;7.00;;;3.30;;
422;SDS011;198;48.752;9.180;2023-06-14T03:30:20;6.97;;;3.57;;
422;SDS011;198;48.752;9.180;2023-06-14T03:32:46;5.80;;;3.60;;
422;SDS011;198;48.752;9.180;2023-06-14T03:35:12;4.70;;;3.33;;
422;SDS011;198;48.752;9.180;2023-06-14T03:37:42;7.00;;;4.00;;
422;SDS011;198;48.752;9.180;2023-06-14T03:40:08;9.60;;;3.97;;
422;SDS011;198;48.752;9.180;2023-06-14T03:42:34;8.87;;;4.47;;
422;SDS011;198;48.752;9.180;2023-06-14T03:44:59;6.90;;;3.67;;
422;SDS011;198;48.752;9.180;2023-06-14T03:47:25;9.20;;;3.93;;
422;SDS011;198;48.752;9.180;2023-06-14T03:49:52;6.23;;;3.50;;
422;SDS011;198;48.752;9.180;2023-06-14T03:52:17;7.43;;;3.83;;
422;SDS011;198;48.752;9.180;2023-06-14T03:54:43;7.03;;;3.40;;
422;SDS011;198;48.752;9.180;2023-06-14T03:57:09;7.27;;;3.80;;
422;SDS011;198;48.752;9.180;2023-06-14T03:59:35;8.57;;;4.43;;
422;SDS011;198;48.752;9.180;2023-06-14T04:02:01;13.53;;;4.07;;
422;SDS011;198;48.752;9.180;2023-06-14T04:04:27;8.83;;;3.73;;
422;SDS011;198;48.752;9.180;2023-06-14T04:06:54;6.90;;;3.17;;
422;SDS011;198;48.752;9.180;2023-06-14T04:09:21;8.30;;;3.80;;
422;SDS011;198;48.752;9.180;2023-06-14T04:11:47;7.00;;;4.23;;
422;SDS011;198;48.752;9.180;2023-06-14T04:14:13;4.60;;;3.30;;
422;SDS011;198;48.752;9.180;2023-06-14T04:16:38;5.97;;;3.67;;
422;SDS011;198;48.752;9.180;2023-06-14T04:19:04;6.43;;;4.23;;
422;SDS011;198;48.752;9.180;2023-06-14T04:21:29;5.23;;;3.60;;
422;SDS011;198;48.752;9.180;2023-06-14T04:23:55;5.30;;;3.47;;
422;SDS011;198;48.752;9.180;2023-06-14T04:26:21;5.77;;;3.77;;
422;SDS011;198;48.752;9.180;2023-06-14T04:28:48;7.60;;;4.17;;
422;SDS011;198;48.752;9.180;2023-06-14T04:31:15;7.00;;;4.13;;
422;SDS011;198;48.752;9.180;2023-06-14T04:33:41;7.90;;;4.00;;
422;SDS011;198;48.752;9.180;2023-06-14T04:36:11;13.10;;;3.87;;
422;SDS011;198;48.752;9.180;2023-06-14T04:38:38;6.30;;;3.30;;
422;SDS011;198;48.752;9.180;2023-06-14T04:41:03;7.83;;;3.60;;
422;SDS011;198;48.752;9.180;2023-06-14T04:43:29;5.40;;;3.80;;
422;SDS011;198;48.752;9.180;2023-06-14T04:45:56;5.03;;;3.70;;
422;SDS011;198;48.752;9.180;2023-06-14T04:48:22;8.93;;;4.00;;
422;SDS011;198;48.752;9.180;2023-06-14T04:50:48;9.20;;;4.10;;
422;SDS011;198;48.752;9.180;2023-06-14T04:53:17;6.90;;;3.60;;
422;SDS011;198;48.752;9.180;2023-06-14T04:55:47;9.17;;;3.50;;
422;SDS011;198;48.752;9.180;2023-06-14T04:58:13;6.40;;;3.50;;
422;SDS011;198;48.752;9.180;2023-06-14T05:00:39;8.23;;;4.50;;
422;SDS011;198;48.752;9.180;2023-06-14T05:03:04;8.87;;;3.60;;
422;SDS011;198;48.752;9.180;2023-06-14T05:05:30;7.07;;;3.60;;
422;SDS011;198;48.752;9.180;2023-06-14T05:07:57;10.30;;;3.43;;
422;SDS011;198;48.752;9.180;2023-06-14T05:10:22;8.30;;;4.13;;
422;SDS011;198;48.752;9.180;2023-06-14T05:12:49;5.37;;;3.50;;
422;SDS011;198;48.752;9.180;2023-06-14T05:15:15;8.87;;;3.87;;
422;SDS011;198;48.752;9.180;2023-06-14T05:17:40;6.30;;;3.33;;
422;SDS011;198;48.752;9.180;2023-06-14T05:20:07;13.37;;;3.70;;
422;SDS011;198;48.752;9.180;2023-06-14T05:22:35;8.90;;;3.47;;
422;SDS011;198;48.752;9.180;2023-06-14T05:25:00;7.20;;;3.57;;
422;SDS011;198;48.752;9.180;2023-06-14T05:27:26;7.20;;;3.93;;
422;SDS011;198;48.752;9.180;2023-06-14T05:29:52;6.47;;;3.73;;
422;SDS011;198;48.752;9.180;2023-06-14T05:32:20;10.43;;;4.17;;
422;SDS011;198;48.752;9.180;2023-06-14T05:34:46;9.60;;;3.83;;
422;SDS011;198;48.752;9.180;2023-06-14T05:37:11;7.67;;;4.03;;
422;SDS011;198;48.752;9.180;2023-06-14T05:39:38;6.80;;;3.83;;
422;SDS011;198;48.752;9.180;2023-06-14T05:42:03;6.73;;;4.23;;
422;SDS011;198;48.752;9.180;2023-06-14T05:44:29;6.63;;;3.93;;
422;SDS011;198;48.752;9.180;2023-06-14T05:46:55;10.00;;;4.30;;
422;SDS011;198;48.752;9.180;2023-06-14T05:49:20;6.03;;;3.50;;
422;SDS011;198;48.752;9.180;2023-06-14T05:51:45;7.50;;;3.53;;
422;SDS011;198;48.752;9.180;2023-06-14T05:54:11;10.50;;;4.13;;
422;SDS011;198;48.752;9.180;2023-06-14T05:56:36;12.90;;;4.87;;
422;SDS011;198;48.752;9.180;2023-06-14T05:59:02;4.50;;;3.50;;
422;SDS011;198;48.752;9.180;2023-06-14T06:01:27;11.70;;;3.77;;
422;SDS011;198;48.752;9.180;2023-06-14T06:03:53;12.00;;;4.17;;
422;SDS011;198;48.752;9.180;2023-06-14T06:06:18;8.47;;;3.30;;
422;SDS011;198;48.752;9.180;2023-06-14T06:08:44;3.77;;;3.60;;
422;SDS011;198;48.752;9.180;2023-06-14T06:11:10;8.27;;;3.97;;
422;SDS011;198;48.752;9.180;2023-06-14T06:13:35;5.83;;;3.73;;
422;SDS011;198;48.752;9.180;2023-06-14T06:16:02;6.47;;;3.50;;
422;SDS011;198;48.752;9.180;2023-06-14T06:18:28;7.83;;;3.93;;
422;SDS011;198;48.752;9.180;2023-06-14T06:20:53;5.60;;;3.40;;
422;SDS011;198;48.752;9.180;2023-06-14T06:23:19;8.70;;;4.60;;
422;SDS011;198;48.752;9.180;2023-06-14T06:25:44;6.47;;;3.70;;
422;SDS011;198;48.752;9.180;2023-06-14T06:28:10;6.27;;;3.63;;
422;SDS011;198;48.752;9.180;2023-06-14T06:30:36;5.03;;;3.50;;
422;SDS011;198;48.752;9.180;2023-06-14T06:33:01;6.03;;;3.40;;
422;SDS011;198;48.752;9.180;2023-06-14T06:35:28;6.70;;;3.70;;
422;SDS011;198;48.752;9.180;2023-06-14T06:37:54;6.87;;;3.80;;
422;SDS011;198;48.752;9.180;2023-06-14T06:40:20;7.03;;;3.90;;
422;SDS011;198;48.752;9.180;2023-06-14T06:42:46;6.07;;;3.77;;
422;SDS011;198;48.752;9.180;2023-06-14T06:45:11;4.40;;;3.33;;
422;SDS011;198;48.752;9.180;2023-06-14T06:47:37;10.27;;;3.83;;
422;SDS011;198;48.752;9.180;2023-06-14T06:50:02;8.37;;;3.80;;
422;SDS011;198;48.752;9.180;2023-06-14T06:52:28;8.00;;;3.60;;
422;SDS011;198;48.752;9.180;2023-06-14T06:54:54;6.30;;;3.50;;
422;SDS011;198;48.752;9.180;2023-06-14T06:57:21;8.53;;;3.43;;
422;SDS011;198;48.752;9.180;2023-06-14T06:59:49;7.80;;;3.97;;
422;SDS011;198;48.752;9.180;2023-06-14T07:02:15;9.33;;;4.57;;
422;SDS011;198;48.752;9.180;2023-06-14T07:04:41;6.67;;;3.40;;
422;SDS011;198;48.752;9.180;2023-06-14T07:07:07;8.87;;;4.03;;
422;SDS011;198;48.752;9.180;2023-06-14T07:09:34;5.30;;;3.50;;
422;SDS011;198;48.752;9.180;2023-06-14T07:12:00;8.87;;;4.00;;
422;SDS011;198;48.752;9.180;2023-06-14T07:14:25;9.97;;;3.60;;
422;SDS011;198;48.752;9.180;2023-06-14T07:16:51;9.27;;;3.40;;
422;SDS011;198;48.752;9.180;2023-06-14T07:19:16;15.10;;;4.23;;
422;SDS011;198;48.752;9.180;2023-06-14T07:21:42;5.13;;;3.40;;
422;SDS011;198;48.752;9.180;2023-06-14T07:24:08;6.57;;;3.63;;
422;SDS011;198;48.752;9.180;2023-06-14T07:26:34;5.70;;;4.40;;
422;SDS011;198;48.752;9.180;2023-06-14T07:29:00;8.13;;;4.50;;
422;SDS011;198;48.752;9.180;2023-06-14T07:31:26;7.40;;;3.60;;
422;SDS011;198;48.752;9.180;2023-06-14T07:33:52;5.30;;;3.10;;
422;SDS011;198;48.752;9.180;2023-06-14T07:36:17;8.30;;;5.20;;
422;SDS011;198;48.752;9.180;2023-06-14T07:38:43;7.83;;;4.33;;
422;SDS011;198;48.752;9.180;2023-06-14T07:41:09;7.37;;;4.30;;
422;SDS011;198;48.752;9.180;2023-06-14T07:43:34;6.83;;;3.30;;
422;SDS011;198;48.752;9.180;2023-06-14T07:46:00;7.37;;;3.80;;
422;SDS011;198;48.752;9.180;2023-06-14T07:48:25;7.10;;;3.60;;
422;SDS011;198;48.752;9.180;2023-06-14T07:50:51;8.13;;;4.10;;
422;SDS011;198;48.752;9.180;2023-06-14T07:53:16;14.43;;;5.07;;
422;SDS011;198;48.752;9.180;2023-06-14T07:55:42;7.27;;;3.70;;
422;SDS011;198;48.752;9.180;2023-06-14T07:58:08;7.97;;;3.60;;
422;SDS011;198;48.752;9.180;2023-06-14T08:00:34;8.10;;;4.70;;
422;SDS011;198;48.752;9.180;2023-06-14T08:02:59;6.33;;;4.00;;
422;SDS011;198;48.752;9.180;2023-06-14T08:05:25;9.33;;;4.70;;
422;SDS011;198;48.752;9.180;2023-06-14T08:07:51;8.40;;;3.20;;
422;SDS011;198;48.752;9.180;2023-06-14T08:10:17;3.53;;;2.73;;
422;SDS011;198;48.752;9.180;2023-06-14T08:12:43;9.47;;;3.97;;
422;SDS011;198;48.752;9.180;2023-06-14T08:15:09;6.60;;;3.70;;
422;SDS011;198;48.752;9.180;2023-06-14T08:17:35;8.50;;;3.53;;
422;SDS011;198;48.752;9.180;2023-06-14T08:20:01;5.93;;;3.60;;
422;SDS011;198;48.752;9.180;2023-06-14T08:22:27;9.00;;;5.00;;
422;SDS011;198;48.752;9.180;2023-06-14T08:24:56;9.57;;;3.63;;
422;SDS011;198;48.752;9.180;2023-06-14T08:27:22;7.33;;;3.20;;
422;SDS011;198;48.752;9.180;2023-06-14T08:29:47;10.57;;;4.37;;
422;SDS011;198;48.752;9.180;2023-06-14T08:32:13;12.53;;;4.30;;
422;SDS011;198;48.752;9.180;2023-06-14T08:34:38;3.33;;;2.70;;
422;SDS011;198;48.752;9.180;2023-06-14T08:37:04;5.77;;;3.53;;
422;SDS011;198;48.752;9.180;2023-06-14T08:39:30;9.50;;;4.10;;
422;SDS011;198;48.752;9.180;2023-06-14T08:41:56;6.93;;;3.87;;
422;SDS011;198;48.752;9.180;2023-06-14T08:44:22;7.73;;;3.97;;
422;SDS011;198;48.752;9.180;2023-06-14T08:46:48;9.70;;;4.47;;
422;SDS011;198;48.752;9.180;2023-06-14T08:49:15;6.80;;;4.77;;
422;SDS011;198;48.752;9.180;2023-06-14T08:51:42;6.87;;;3.70;;
422;SDS011;198;48.752;9.180;2023-06-14T08:54:08;7.30;;;3.40;;
422;SDS011;198;48.752;9.180;2023-06-14T08:56:36;10.70;;;4.17;;
422;SDS011;198;48.752;9.180;2023-06-14T08:59:03;9.50;;;4.70;;
422;SDS011;198;48.752;9.180;2023-06-14T09:01:33;5.50;;;3.70;;
422;SDS011;198;48.752;9.180;2023-06-14T09:03:59;10.83;;;4.53;;
422;SDS011;198;48.752;9.180;2023-06-14T09:06:25;10.93;;;4.17;;
422;SDS011;198;48.752;9.180;2023-06-14T09:08:53;6.73;;;3.97;;
422;SDS011;198;48.752;9.180;2023-06-14T09:11:22;7.70;;;3.80;;
422;SDS011;198;48.752;9.180;2023-06-14T09:13:48;4.70;;;3.60;;
422;SDS011;198;48.752;9.180;2023-06-14T09:16:14;6.50;;;4.33;;
422;SDS011;198;48.752;9.180;2023-06-14T09:18:41;6.20;;;3.70;;
422;SDS011;198;48.752;9.180;2023-06-14T09:21:09;8.90;;;4.30;;
422;SDS011;198;48.752;9.180;2023-06-14T09:23:36;6.80;;;3.70;;
422;SDS011;198;48.752;9.180;2023-06-14T09:26:06;5.83;;;3.57;;
422;SDS011;198;48.752;9.180;2023-06-14T09:28:33;9.53;;;3.30;;
422;SDS011;198;48.752;9.180;2023-06-14T09:31:00;6.30;;;3.63;;
422;SDS011;198;48.752;9.180;2023-06-14T09:33:26;8.23;;;3.73;;
422;SDS011;198;48.752;9.180;2023-06-14T09:35:52;5.47;;;3.40;;
422;SDS011;198;48.752;9.180;2023-06-14T09:38:19;8.57;;;3.67;;
422;SDS011;198;48.752;9.180;2023-06-14T09:40:45;7.73;;;3.17;;
422;SDS011;198;48.752;9.180;2023-06-14T09:43:10;6.37;;;3.67;;
422;SDS011;198;48.752;9.180;2023-06-14T09:45:36;7.20;;;3.50;;
422;SDS011;198;48.752;9.180;2023-06-14T09:48:05;8.03;;;3.70;;
422;SDS011;198;48.752;9.180;2023-06-14T09:50:32;9.67;;;6.00;;
422;SDS011;198;48.752;9.180;2023-06-14T09:53:07;6.20;;;3.50;;
422;SDS011;198;48.752;9.180;2023-06-14T09:55:37;6.17;;;4.00;;
422;SDS011;198;48.752;9.180;2023-06-14T09:58:05;9.27;;;3.60;;
422;SDS011;198;48.752;9.180;2023-06-14T10:00:32;10.40;;;2.83;;
422;SDS011;198;48.752;9.180;2023-06-14T10:03:21;5.50;;;3.70;;
422;SDS011;198;48.752;9.180;2023-06-14T10:05:53;5.90;;;3.00;;
422;SDS011;198;48.752;9.180;2023-06-14T10:08:23;5.57;;;2.27;;
422;SDS011;198;48.752;9.180;2023-06-14T10:10:52;5.87;;;3.00;;
422;SDS011;198;48.752;9.180;2023-06-14T10:13:20;4.27;;;2.10;;
422;SDS011;198;48.752;9.180;2023-06-14T10:18:31;6.77;;;2.30;;
422;SDS011;198;48.752;9.180;2023-06-14T10:24:08;12.10;;;2.97;;
422;SDS011;198;48.752;9.180;2023-06-14T10:26:39;8.07;;;2.40;;
422;SDS011;198;48.752;9.180;2023-06-14T10:29:15;2.47;;;2.00;;
422;SDS011;198;48.752;9.180;2023-06-14T10:31:44;4.40;;;2.53;;
422;SDS011;198;48.752;9.180;2023-06-14T10:34:21;3.73;;;2.10;;
422;SDS011;198;48.752;9.180;2023-06-14T10:36:59;6.23;;;2.63;;
422;SDS011;198;48.752;9.180;2023-06-14T10:39:29;4.77;;;2.77;;
422;SDS011;198;48.752;9.180;2023-06-14T10:41:56;4.30;;;2.85;;
422;SDS011;198;48.752;9.180;2023-06-14T10:46:48;2.63;;;2.20;;
422;SDS011;198;48.752;9.180;2023-06-14T10:49:17;9.23;;;2.58;;
422;SDS011;198;48.752;9.180;2023-06-14T10:51:49;2.65;;;2.50;;
422;SDS011;198;48.752;9.180;2023-06-14T10:54:16;11.60;;;3.67;;
422;SDS011;198;48.752;9.180;2023-06-14T10:56:49;5.43;;;2.80;;
422;SDS011;198;48.752;9.180;2023-06-14T10:59:16;4.77;;;2.57;;
422;SDS011;198;48.752;9.180;2023-06-14T11:01:55;3.67;;;2.47;;
422;SDS011;198;48.752;9.180;2023-06-14T11:04:39;2.35;;;1.52;;
422;SDS011;198;48.752;9.180;2023-06-14T11:13:05;4.43;;;2.05;;
422;SDS011;198;48.752;9.180;2023-06-14T11:15:32;3.63;;;2.80;;
422;SDS011;198;48.752;9.180;2023-06-14T11:18:06;2.28;;;1.92;;
422;SDS011;198;48.752;9.180;2023-06-14T11:20:33;1.98;;;1.90;;
422;SDS011;198;48.752;9.180;2023-06-14T11:23:00;3.90;;;1.88;;
422;SDS011;198;48.752;9.180;2023-06-14T11:25:27;3.97;;;2.03;;
422;SDS011;198;48.752;9.180;2023-06-14T11:27:53;2.40;;;2.20;;
422;SDS011;198;48.752;9.180;2023-06-14T11:30:20;4.00;;;2.13;;
422;SDS011;198;48.752;9.180;2023-06-14T11:32:49;4.53;;;2.17;;
422;SDS011;198;48.752;9.180;2023-06-14T11:35:17;2.92;;;1.63;;
422;SDS011;198;48.752;9.180;2023-06-14T11:37:43;3.97;;;2.67;;
422;SDS011;198;48.752;9.180;2023-06-14T11:40:12;9.52;;;2.60;;
422;SDS011;198;48.752;9.180;2023-06-14T11:42:39;4.25;;;1.95;;
422;SDS011;198;48.752;9.180;2023-06-14T11:45:09;4.03;;;2.05;;
422;SDS011;198;48.752;9.180;2023-06-14T11:47:35;2.50;;;2.35;;
422;SDS011;198;48.752;9.180;2023-06-14T11:50:03;3.05;;;2.28;;
422;SDS011;198;48.752;9.180;2023-06-14T11:52:30;2.53;;;1.98;;
422;SDS011;198;48.752;9.180;2023-06-14T11:54:56;7.38;;;1.98;;
422;SDS011;198;48.752;9.180;2023-06-14T11:57:22;5.85;;;1.60;;
422;SDS011;198;48.752;9.180;2023-06-14T11:59:48;9.07;;;2.28;;
422;SDS011;198;48.752;9.180;2023-06-14T12:02:14;5.70;;;2.10;;
422;SDS011;198;48.752;9.180;2023-06-14T12:04:41;2.00;;;1.90;;
422;SDS011;198;48.752;9.180;2023-06-14T12:07:10;5.45;;;2.55;;
422;SDS011;198;48.752;9.180;2023-06-14T12:12:20;2.20;;;2.00;;
422;SDS011;198;48.752;9.180;2023-06-14T12:14:47;2.28;;;2.08;;
422;SDS011;198;48.752;9.180;2023-06-14T12:17:16;1.90;;;1.80;;
422;SDS011;198;48.752;9.180;2023-06-14T12:19:42;3.80;;;2.20;;
422;SDS011;198;48.752;9.180;2023-06-14T12:22:12;1.95;;;1.85;;
422;SDS011;198;48.752;9.180;2023-06-14T12:24:38;1.67;;;1.58;;
422;SDS011;198;48.752;9.180;2023-06-14T12:27:04;4.45;;;2.50;;
422;SDS011;198;48.752;9.180;2023-06-14T12:29:30;4.15;;;2.33;;
422;SDS011;198;48.752;9.180;2023-06-14T12:31:57;3.75;;;2.45;;
422;SDS011;198;48.752;9.180;2023-06-14T12:34:26;7.15;;;2.38;;
422;SDS011;198;48.752;9.180;2023-06-14T12:36:52;2.30;;;2.10;;
422;SDS011;198;48.752;9.180;2023-06-14T12:39:19;4.32;;;2.67;;
422;SDS011;198;48.752;9.180;2023-06-14T12:41:45;2.80;;;2.67;;
422;SDS011;198;48.752;9.180;2023-06-14T12:44:11;3.63;;;2.40;;
422;SDS011;198;48.752;9.180;2023-06-14T12:46:37;4.10;;;2.25;;
422;SDS011;198;48.752;9.180;2023-06-14T12:49:08;3.33;;;2.40;;
422;SDS011;198;48.752;9.180;2023-06-14T12:51:34;6.50;;;2.70;;
422;SDS011;198;48.752;9.180;2023-06-14T12:54:00;3.50;;;2.60;;
422;SDS011;198;48.752;9.180;2023-06-14T12:56:25;5.30;;;2.73;;
422;SDS011;198;48.752;9.180;2023-06-14T12:58:51;8.02;;;3.33;;
422;SDS011;198;48.752;9.180;2023-06-14T13:01:17;4.47;;;2.10;;
422;SDS011;198;48.752;9.180;2023-06-14T13:03:42;3.75;;;2.45;;
422;SDS011;198;48.752;9.180;2023-06-14T13:06:08;2.58;;;2.30;;
422;SDS011;198;48.752;9.180;2023-06-14T13:08:33;2.28;;;2.13;;
422;SDS011;198;48.752;9.180;2023-06-14T13:10:59;3.72;;;2.13;;
422;SDS011;198;48.752;9.180;2023-06-14T13:13:25;3.38;;;2.08;;
422;SDS011;198;48.752;9.180;2023-06-14T13:15:50;7.57;;;2.38;;
422;SDS011;198;48.752;9.180;2023-06-14T13:18:16;5.03;;;2.40;;
422;SDS011;198;48.752;9.180;2023-06-14T13:20:42;4.90;;;2.20;;
422;SDS011;198;48.752;9.180;2023-06-14T13:23:07;5.35;;;2.03;;
422;SDS011;198;48.752;9.180;2023-06-14T13:25:34;2.67;;;1.83;;
422;SDS011;198;48.752;9.180;2023-06-14T13:28:00;1.92;;;1.83;;
422;SDS011;198;48.752;9.180;2023-06-14T13:30:26;7.57;;;1.83;;
422;SDS011;198;48.752;9.180;2023-06-14T13:32:52;2.45;;;1.90;;
422;SDS011;198;48.752;9.180;2023-06-14T13:35:17;1.80;;;1.73;;
422;SDS011;198;48.752;9.180;2023-06-14T13:37:44;2.35;;;2.20;;
422;SDS011;198;48.752;9.180;2023-06-14T13:40:10;5.50;;;2.40;;
422;SDS011;198;48.752;9.180;2023-06-14T13:42:36;1.90;;;1.83;;
422;SDS011;198;48.752;9.180;2023-06-14T13:45:02;2.15;;;2.00;;
422;SDS011;198;48.752;9.180;2023-06-14T13:47:28;5.90;;;2.17;;
422;SDS011;198;48.752;9.180;2023-06-14T13:49:54;2.75;;;1.95;;
422;SDS011;198;48.752;9.180;2023-06-14T13:52:20;2.30;;;2.13;;
422;SDS011;198;48.752;9.180;2023-06-14T13:54:46;2.75;;;2.22;;
422;SDS011;198;48.752;9.180;2023-06-14T13:57:12;6.93;;;2.03;;
422;SDS011;198;48.752;9.180;2023-06-14T13:59:38;1.73;;;1.63;;
422;SDS011;198;48.752;9.180;2023-06-14T14:02:04;2.53;;;1.95;;
422;SDS011;198;48.752;9.180;2023-06-14T14:04:30;1.73;;;1.63;;
422;SDS011;198;48.752;9.180;2023-06-14T14:06:56;4.88;;;2.25;;
422;SDS011;198;48.752;9.180;2023-06-14T14:09:22;3.30;;;2.40;;
422;SDS011;198;48.752;9.180;2023-06-14T14:11:47;2.53;;;2.00;;
422;SDS011;198;48.752;9.180;2023-06-14T14:14:13;3.97;;;2.30;;
422;SDS011;198;48.752;9.180;2023-06-14T14:16:39;1.87;;;1.87;;
422;SDS011;198;48.752;9.180;2023-06-14T14:19:05;9.10;;;3.67;;
422;SDS011;198;48.752;9.180;2023-06-14T14:21:31;5.20;;;2.40;;
422;SDS011;198;48.752;9.180;2023-06-14T14:23:57;2.80;;;2.53;;
422;SDS011;198;48.752;9.180;2023-06-14T14:26:23;3.00;;;2.30;;
422;SDS011;198;48.752;9.180;2023-06-14T14:28:49;2.40;;;2.20;;
422;SDS011;198;48.752;9.180;2023-06-14T14:31:15;5.60;;;2.97;;
422;SDS011;198;48.752;9.180;2023-06-14T14:33:41;5.90;;;2.63;;
422;SDS011;198;48.752;9.180;2023-06-14T14:36:06;2.13;;;1.93;;
422;SDS011;198;48.752;9.180;2023-06-14T14:38:32;4.20;;;3.00;;
422;SDS011;198;48.752;9.180;2023-06-14T14:40:58;3.20;;;2.10;;
422;SDS011;198;48.752;9.180;2023-06-14T14:43:23;9.00;;;2.67;;
422;SDS011;198;48.752;9.180;2023-06-14T14:45:49;4.60;;;2.22;;
422;SDS011;198;48.752;9.180;2023-06-14T14:48:14;3.78;;;2.17;;
422;SDS011;198;48.752;9.180;2023-06-14T14:50:40;2.50;;;2.30;;
422;SDS011;198;48.752;9.180;2023-06-14T14:53:06;5.80;;;2.28;;
422;SDS011;198;48.752;9.180;2023-06-14T14:55:31;5.90;;;2.38;;
422;SDS011;198;48.752;9.180;2023-06-14T14:57:59;2.35;;;2.15;;
422;SDS011;198;48.752;9.180;2023-06-14T15:00:25;2.42;;;2.22;;
422;SDS011;198;48.752;9.180;2023-06-14T15:02:51;2.92;;;2.10;;
422;SDS011;198;48.752;9.180;2023-06-14T15:05:16;3.80;;;2.38;;
422;SDS011;198;48.752;9.180;2023-06-14T15:07:42;3.88;;;2.05;;
422;SDS011;198;48.752;9.180;2023-06-14T15:10:09;2.33;;;2.13;;
422;SDS011;198;48.752;9.180;2023-06-14T15:12:35;3.10;;;2.38;;
422;SDS011;198;48.752;9.180;2023-06-14T15:15:01;6.05;;;2.25;;
422;SDS011;198;48.752;9.180;2023-06-14T15:17:27;2.78;;;1.85;;
422;SDS011;198;48.752;9.180;2023-06-14T15:19:52;2.78;;;2.03;;
422;SDS011;198;48.752;9.180;2023-06-14T15:22:18;7.37;;;2.13;;
422;SDS011;198;48.752;9.180;2023-06-14T15:24:44;3.57;;;2.57;;
422;SDS011;198;48.752;9.180;2023-06-14T15:27:09;2.30;;;2.10;;
422;SDS011;198;48.752;9.180;2023-06-14T15:29:37;6.30;;;2.60;;
422;SDS011;198;48.752;9.180;2023-06-14T15:32:04;3.30;;;2.40;;
422;SDS011;198;48.752;9.180;2023-06-14T15:34:30;3.40;;;2.40;;
422;SDS011;198;48.752;9.180;2023-06-14T15:36:56;2.17;;;1.95;;
422;SDS011;198;48.752;9.180;2023-06-14T15:39:22;3.42;;;2.53;;
422;SDS011;198;48.752;9.180;2023-06-14T15:41:48;2.33;;;2.10;;
422;SDS011;198;48.752;9.180;2023-06-14T15:44:15;5.18;;;2.95;;
422;SDS011;198;48.752;9.180;2023-06-14T15:46:40;4.72;;;2.30;;
422;SDS011;198;48.752;9.180;2023-06-14T15:49:08;2.13;;;1.98;;
422;SDS011;198;48.752;9.180;2023-06-14T15:51:35;22.75;;;3.08;;
422;SDS011;198;48.752;9.180;2023-06-14T15:54:01;2.50;;;2.30;;
422;SDS011;198;48.752;9.180;2023-06-14T15:56:27;4.05;;;1.98;;
422;SDS011;198;48.752;9.180;2023-06-14T15:58:52;3.00;;;1.55;;
422;SDS011;198;48.752;9.180;2023-06-14T16:01:18;4.78;;;2.53;;
422;SDS011;198;48.752;9.180;2023-06-14T16:03:43;6.05;;;2.28;;